Airfield :
LOGIN :

Register | Disclaimer

   EN    FR    IT 

 










Legend :    VFR   Marginal VFR   IFR   Intensive IFR   Very Intensive IFR
Visi :
Ceiling :
>= 8 km
>= 3000ft
5 to 8 km
1000 to 3000 ft
1500m to 5 km
500 to 1000 ft
800 to 1500m
200 to 500 ft
< 800m
< 200 ft
Symbols :   Thunderstorms  Fog  Heavy snow  Heavy precipitations  Wind > 20 kt
SIGMETs :     Misc.  Thunderstorms  Icing  Turbulence  Mountain Waves  Volcanic Ashes






- Airport Elevation : 1249 ft


ETSN - Neuburg AB

CURRENT METAR :
  • 031820Z 29005KT 9999 FEW070 SCT170 BKN280 21/08 Q1002 BLU+

EXPIRED METARs :
  • 031720Z 27010KT 9999 FEW070 BKN280 22/08 Q1001 BLU+

TAF TAF ETSN
Valid from the 03 at 17:00 until the 04 at 02:00 UTC


031620Z 0317/0402 24008KT 9999 NSW FEW060 SCT150 BKN220
TEMPO 0317/0320 VRB10G20KT 5000 SHRA BKN050CB
PROB30 0317/0320 VRB15G30KT 4000 TSRA SCT020 BKN040CB
TEMPO 0320/0402 16005KT 5000 RA SCT020 BKN040 BY ETGL



MET'MAP, your aeronautical weather chart ! - Copyright ORBIFLY December 2007 - Disclaimer

ORBIFLY MET'MAP TEAM :

Programming & Development : Alexandra Zaïnal
Concept & original design : Baudouin d'Aumeries
Assistance for programming : Marc-Olivier Méhu
Technical & hardware support : Manuel Goepfert

Contact : metmap@orbifly.com




SOURCES & CREDITS :

   NOAA